Skip to main content

NOAA/GLERL Met Station at Michigan City, IN

Previous 5 days (top of hour only)
See also Previous 3 Hours (2 minute increments)
Jump down to Data
Switch to [English][Metric]
Zoom: Click and drag, Pan: shift-click and drag, Unzoom: double-click, Unzoom All




Note: Speed = mean wind during 2-minute period at top of hour,
Gust = max wind during 2-minute period at top of hour,
Peak = max wind during entire hour.
• See also 5-day windrose plot


NOAA/GLERL Met Station at Michigan City, IN

Previous 5 days (top of hour only)
See also Previous 3 Hours (2 minute increments)
Jump up to Graphs
Switch to [English][Metric]
                  Wind  Wind  Wind   Air   Dew   Rel     Sta   PAR
                   Spd   Gst   Dir  Temp    Pt   Hum    Pres uE/m2/
YYYY-MM-DD   CDT   kts   kts   deg     F     F     %   in Hg   sec
2018-04-24 23:00   4.5   5.1   287  42.8  44.1 105.3    0.00     0
2018-04-24 22:00   3.7   4.7   303  43.3  44.6 104.8    0.00     0
2018-04-24 21:00   4.9   5.4   276  44.2  45.3 104.3    0.00     0
2018-04-24 20:00   3.5   3.9   300  44.4  45.7 105.0    0.00     0
2018-04-24 19:00   3.5   4.3    11  44.2  45.8 106.0    0.00     0
2018-04-24 18:00   6.4   7.0    30  43.9  45.4 106.1    0.00     0
2018-04-24 17:00   6.8   7.6    44  44.1  45.6 106.1    0.00     0
2018-04-24 16:00   7.0   7.6    43  43.3  45.0 106.7    0.00     0
2018-04-24 15:00   5.6   6.4    16  43.0  44.6 106.4    0.00     0
2018-04-24 14:00   4.7   5.6     4  43.9  44.9 104.1    0.00     0
2018-04-24 13:00   4.9   5.4    21  45.3  46.5 104.7    0.00     0
2018-04-24 12:00   4.9   5.2    33  43.5  44.8 105.1    0.00     0
2018-04-24 11:00   7.2   7.6    45  44.2  45.1 103.5    0.00     0
2018-04-24 10:00   5.6   6.2    34  50.7  47.7  89.1    0.00     0
2018-04-24 09:00   8.4   9.5    41  45.1  46.4 105.1    0.00     0
2018-04-24 08:00   7.6   7.8    43  45.0  46.0 104.2    0.00     0
2018-04-24 07:00   6.0   6.8    35  44.6  45.7 104.3    0.00     0
2018-04-24 06:00   6.2   6.4    14  43.7  44.9 104.8    0.00     0
2018-04-24 05:00   4.9   5.2    40  44.8  46.1 105.0    0.00     0
2018-04-24 04:00   5.1   6.2    49  49.8  47.4  91.4    0.00     0
2018-04-24 03:00   4.3   5.1    22  47.8  48.7 103.2    0.00     0
2018-04-24 02:00   4.5   5.1     7  46.6  42.2  84.4    0.00     0
2018-04-24 01:00   2.5   2.7    58  48.7  43.6  82.1    0.00     0
2018-04-24 00:00   3.5   3.9    58  44.8  37.5  75.2    0.00     0
2018-04-23 23:00   1.9   2.1   148  48.7  39.1  69.0    0.00     0
2018-04-23 22:00   3.9   3.9    42  44.6  35.5  70.0    0.00     0
2018-04-23 21:00   2.3   2.9    41  43.3  37.0  78.0    0.00     0
2018-04-23 20:00   4.5   4.9   341  43.2  37.7  80.7    0.00     0
2018-04-23 19:00   1.0   1.4   323  44.2  34.8  69.2    0.00     0
2018-04-23 18:00   1.6   1.9   290  44.8  34.8  67.6    0.00     0
2018-04-23 17:00   3.3   3.9   251  42.4  36.2  78.4    0.00     0
2018-04-23 16:00   7.6   8.2   255  41.9  35.7  78.4    0.00     0
2018-04-23 15:00   4.7   5.8   253  43.0  35.0  73.0    0.00     0
2018-04-23 14:00   4.7   5.1    13  43.2  36.5  77.2    0.00     0
2018-04-23 13:00   6.4   7.2    29  42.4  36.9  80.5    0.00     0
2018-04-23 12:00   4.3   4.9    13  42.3  36.3  79.3    0.00     0
2018-04-23 11:00   7.4   8.0    26  41.5  35.9  80.2    0.00     0
2018-04-23 10:00   6.2   6.8    33  41.7  35.3  77.7    0.00     0
2018-04-23 09:00   6.6   7.6    33  41.7  35.1  77.0    0.00     0
2018-04-23 08:00  12.4  13.6    28  41.5  34.2  74.9    0.00     0
2018-04-23 07:00  12.4  13.0    34  42.8  33.4  69.0    0.00     0
2018-04-23 06:00   8.7   8.9    46  43.0  33.0  67.6    0.00     0
2018-04-23 05:00   8.0   8.4    46  44.6  27.3  50.3    0.00     0
2018-04-23 04:00   7.8   8.6    51  46.4  20.3  35.0    0.00     0
2018-04-23 03:00   8.0   9.7    73  47.8  18.1  30.3    0.00     0
2018-04-23 02:00   8.7   9.9    64  48.2  17.4  29.0    0.00     0
2018-04-23 01:00   7.6   8.7    69  49.5  17.7  28.0    0.00     0
2018-04-23 00:00   8.6   9.9    84  50.7  19.0  28.2    0.00     0
2018-04-22 23:00   7.4   7.8    35  41.7  39.0  90.0    0.00     0
2018-04-22 22:00   8.7   9.1    39  41.7  38.6  88.5    0.00     0
2018-04-22 21:00  12.1  12.8    39  41.5  37.1  83.9    0.00     0
2018-04-22 20:00  12.8  13.8    31  41.7  35.4  78.0    0.00     0
2018-04-22 19:00  12.8  13.6    33  42.8  34.6  72.4    0.00     0
2018-04-22 18:00  11.7  12.2    32  43.2  34.1  70.0    0.00     0
2018-04-22 17:00   9.7  10.5    45  43.2  34.0  69.8    0.00     0
2018-04-22 16:00  11.7  13.4    37  44.1  33.5  66.0    0.00     0
2018-04-22 15:00  10.7  11.9    21  44.1  34.2  68.0    0.00     0
2018-04-22 14:00  15.9  17.5     3  46.0  32.3  58.4    0.00     0
2018-04-22 13:00  11.1  14.8    84  58.3  19.8  22.1    0.00     0
2018-04-22 12:00  17.9  19.6    65  56.7  16.5  20.3    0.00     0
2018-04-22 11:00  15.2  18.3    58  54.7  17.9  23.2    0.00     0
2018-04-22 10:00  13.4  15.6    65  53.2  20.0  26.8    0.00     0
2018-04-22 09:00   5.1   5.6    52  48.6  21.6  34.1    0.00     0
2018-04-22 08:00   4.1   4.3    41  45.5  25.0  44.2    0.00     0
2018-04-22 07:00   7.2   9.1    55  46.4  18.9  33.1    0.00     0
2018-04-22 06:00  10.9  11.7    60  46.0  23.0  39.9    0.00     0
2018-04-22 05:00   6.2   7.2   100  45.7  24.4  42.8    0.00     0
2018-04-22 04:00   6.0   6.8   121  45.3  26.2  46.7    0.00     0
2018-04-22 03:00   6.2   6.6    60  43.5  27.0  51.9    0.00     0
2018-04-22 02:00   4.1   4.3    51  41.4  35.4  79.1    0.00     0
2018-04-22 01:00   2.9   3.1    77  41.4  36.3  82.0    0.00     0
2018-04-22 00:00   8.2   8.4    37  41.2  36.6  83.4    0.00     0
2018-04-21 23:00   5.8   5.8    45  41.0  34.8  78.3    0.00     0
2018-04-21 22:00   4.9   5.2    57  41.4  34.4  76.1    0.00     0
2018-04-21 21:00   8.4   8.7    30  41.2  31.8  69.1    0.00     0
2018-04-21 20:00   6.4   6.8    32  42.1  29.0  59.4    0.00     0
2018-04-21 19:00   8.6   9.1    35  43.2  24.8  48.0    0.00     0
2018-04-21 18:00   6.0   6.4    33  41.9  29.7  61.5    0.00     0
2018-04-21 17:00   5.2   5.6    13  41.9  29.9  62.1    0.00     0
2018-04-21 16:00   5.4   6.0    28  42.1  31.0  64.6    0.00     0
2018-04-21 15:00   6.2   6.8    33  42.1  30.7  63.7    0.00     0
2018-04-21 14:00   7.8   8.2    35  41.4  31.6  67.8    0.00     0
2018-04-21 13:00   7.4   7.8    31  40.6  30.3  66.4    0.00     0
2018-04-21 12:00   6.6   6.8    34  39.6  33.0  77.2    0.00     0
2018-04-21 11:00   3.1   3.5    23  39.4  32.7  76.8    0.00     0
2018-04-21 10:00   2.7   3.1   351  41.4  31.3  67.0    0.00     0
2018-04-21 09:00   1.4   1.6   101  40.8  27.3  58.3    0.00     0
2018-04-21 08:00   0.4   1.2    68  40.1  22.9  49.9    0.00     0
2018-04-21 07:00   0.8   1.4   124  39.0  20.2  46.5    0.00     0
2018-04-21 06:00   3.5   4.1    64  39.9  11.3  30.6    0.00     0
2018-04-21 05:00   1.7   2.1    44  40.3   9.9  28.3    0.00     0
2018-04-21 04:00   2.7   3.5    69  40.8  13.1  31.9    0.00     0
2018-04-21 03:00   3.1   3.7    59  41.4  13.5  31.8    0.00     0
2018-04-21 02:00   4.7   5.1    56  40.8  12.0  30.4    0.00     0
2018-04-21 01:00   5.1   5.6    54  41.5  14.9  33.6    0.00     0
2018-04-21 00:00   6.8   8.6    65  43.0  10.5  26.2    0.00     0
2018-04-20 23:00   7.0   7.6    65  42.4   9.3  25.3    0.00     0
2018-04-20 22:00   7.2   7.8    52  42.4  20.1  40.5    0.00     0
2018-04-20 21:00   5.1   5.2    45  43.0  15.5  32.6    0.00     0
2018-04-20 20:00   6.4   6.8    48  42.6  22.2  44.0    0.00     0
2018-04-20 19:00   6.6   6.8    38  42.3  23.7  47.4    0.00     0